sensor_id;sensor_type;location;lat;lon;timestamp;temperature;humidity
70051;SHT30;57391;51.306;22.680;2022-10-16T00:01:42;12.64;73.30
70051;SHT30;57391;51.306;22.680;2022-10-16T00:04:09;12.63;73.31
70051;SHT30;57391;51.306;22.680;2022-10-16T00:06:37;12.59;73.22
70051;SHT30;57391;51.306;22.680;2022-10-16T00:09:05;12.54;73.31
70051;SHT30;57391;51.306;22.680;2022-10-16T00:11:34;12.50;73.43
70051;SHT30;57391;51.306;22.680;2022-10-16T00:14:06;12.46;73.54
70051;SHT30;57391;51.306;22.680;2022-10-16T00:16:39;12.42;73.63
70051;SHT30;57391;51.306;22.680;2022-10-16T00:19:07;12.40;73.74
70051;SHT30;57391;51.306;22.680;2022-10-16T00:21:38;12.37;73.88
70051;SHT30;57391;51.306;22.680;2022-10-16T00:24:06;12.35;73.91
70051;SHT30;57391;51.306;22.680;2022-10-16T00:26:36;12.29;74.03
70051;SHT30;57391;51.306;22.680;2022-10-16T00:29:04;12.21;74.22
70051;SHT30;57391;51.306;22.680;2022-10-16T00:31:33;12.14;74.33
70051;SHT30;57391;51.306;22.680;2022-10-16T00:34:01;12.07;74.51
70051;SHT30;57391;51.306;22.680;2022-10-16T00:36:29;12.02;74.72
70051;SHT30;57391;51.306;22.680;2022-10-16T00:38:57;11.96;74.90
70051;SHT30;57391;51.306;22.680;2022-10-16T00:41:27;11.91;74.99
70051;SHT30;57391;51.306;22.680;2022-10-16T00:44:40;11.89;75.12
70051;SHT30;57391;51.306;22.680;2022-10-16T00:47:11;11.86;75.21
70051;SHT30;57391;51.306;22.680;2022-10-16T00:49:58;11.84;75.20
70051;SHT30;57391;51.306;22.680;2022-10-16T00:52:33;11.82;75.18
70051;SHT30;57391;51.306;22.680;2022-10-16T00:55:02;11.80;75.27
70051;SHT30;57391;51.306;22.680;2022-10-16T00:57:33;11.80;75.39
70051;SHT30;57391;51.306;22.680;2022-10-16T01:00:00;11.79;75.54
70051;SHT30;57391;51.306;22.680;2022-10-16T01:02:31;11.78;75.56
70051;SHT30;57391;51.306;22.680;2022-10-16T01:04:58;11.76;75.52
70051;SHT30;57391;51.306;22.680;2022-10-16T01:10:41;11.76;75.43
70051;SHT30;57391;51.306;22.680;2022-10-16T01:13:33;11.75;75.27
70051;SHT30;57391;51.306;22.680;2022-10-16T01:16:21;11.74;75.44
70051;SHT30;57391;51.306;22.680;2022-10-16T01:19:04;11.74;75.54
70051;SHT30;57391;51.306;22.680;2022-10-16T01:21:41;11.71;75.53
70051;SHT30;57391;51.306;22.680;2022-10-16T01:27:24;11.66;75.75
70051;SHT30;57391;51.306;22.680;2022-10-16T01:29:59;11.62;75.78
70051;SHT30;57391;51.306;22.680;2022-10-16T01:32:45;11.58;75.85
70051;SHT30;57391;51.306;22.680;2022-10-16T01:35:17;11.56;75.91
70051;SHT30;57391;51.306;22.680;2022-10-16T01:38:08;11.53;76.00
70051;SHT30;57391;51.306;22.680;2022-10-16T01:40:45;11.49;76.00
70051;SHT30;57391;51.306;22.680;2022-10-16T01:43:19;11.46;76.11
70051;SHT30;57391;51.306;22.680;2022-10-16T01:45:55;11.42;76.25
70051;SHT30;57391;51.306;22.680;2022-10-16T01:48:23;11.40;76.30
70051;SHT30;57391;51.306;22.680;2022-10-16T01:50:59;11.37;76.33
70051;SHT30;57391;51.306;22.680;2022-10-16T01:53:36;11.34;76.47
70051;SHT30;57391;51.306;22.680;2022-10-16T01:56:06;11.31;76.71
70051;SHT30;57391;51.306;22.680;2022-10-16T01:58:40;11.29;76.76
70051;SHT30;57391;51.306;22.680;2022-10-16T02:01:16;11.27;76.71
70051;SHT30;57391;51.306;22.680;2022-10-16T02:03:49;11.26;76.82
70051;SHT30;57391;51.306;22.680;2022-10-16T02:06:23;11.26;76.96
70051;SHT30;57391;51.306;22.680;2022-10-16T02:08:51;11.25;76.97
70051;SHT30;57391;51.306;22.680;2022-10-16T02:11:20;11.23;76.94
70051;SHT30;57391;51.306;22.680;2022-10-16T02:13:52;11.21;76.99
70051;SHT30;57391;51.306;22.680;2022-10-16T02:16:59;11.19;76.97
70051;SHT30;57391;51.306;22.680;2022-10-16T02:19:18;11.15;76.96
70051;SHT30;57391;51.306;22.680;2022-10-16T02:21:56;11.12;77.13
70051;SHT30;57391;51.306;22.680;2022-10-16T02:24:47;11.10;77.27
70051;SHT30;57391;51.306;22.680;2022-10-16T02:27:53;11.09;77.47
70051;SHT30;57391;51.306;22.680;2022-10-16T02:30:47;11.06;77.50
70051;SHT30;57391;51.306;22.680;2022-10-16T02:33:20;11.06;77.60
70051;SHT30;57391;51.306;22.680;2022-10-16T02:35:51;11.06;77.62
70051;SHT30;57391;51.306;22.680;2022-10-16T02:38:20;11.06;77.68
70051;SHT30;57391;51.306;22.680;2022-10-16T02:40:49;11.06;77.78
70051;SHT30;57391;51.306;22.680;2022-10-16T02:43:17;11.04;77.90
70051;SHT30;57391;51.306;22.680;2022-10-16T02:45:45;11.03;77.95
70051;SHT30;57391;51.306;22.680;2022-10-16T02:48:12;11.02;78.04
70051;SHT30;57391;51.306;22.680;2022-10-16T02:50:39;11.01;78.13
70051;SHT30;57391;51.306;22.680;2022-10-16T02:53:06;10.99;78.27
70051;SHT30;57391;51.306;22.680;2022-10-16T02:55:33;10.99;78.50
70051;SHT30;57391;51.306;22.680;2022-10-16T02:58:00;10.98;78.53
70051;SHT30;57391;51.306;22.680;2022-10-16T03:00:27;10.98;78.57
70051;SHT30;57391;51.306;22.680;2022-10-16T03:02:55;10.96;78.53
70051;SHT30;57391;51.306;22.680;2022-10-16T03:05:22;10.96;78.61
70051;SHT30;57391;51.306;22.680;2022-10-16T03:07:49;10.95;78.65
70051;SHT30;57391;51.306;22.680;2022-10-16T03:10:16;10.94;78.70
70051;SHT30;57391;51.306;22.680;2022-10-16T03:12:43;10.94;78.81
70051;SHT30;57391;51.306;22.680;2022-10-16T03:15:10;10.95;78.84
70051;SHT30;57391;51.306;22.680;2022-10-16T03:17:37;10.96;78.89
70051;SHT30;57391;51.306;22.680;2022-10-16T03:20:05;10.96;79.00
70051;SHT30;57391;51.306;22.680;2022-10-16T03:22:32;10.97;78.98
70051;SHT30;57391;51.306;22.680;2022-10-16T03:24:59;10.96;78.97
70051;SHT30;57391;51.306;22.680;2022-10-16T03:27:27;10.96;79.06
70051;SHT30;57391;51.306;22.680;2022-10-16T03:29:54;10.96;79.03
70051;SHT30;57391;51.306;22.680;2022-10-16T03:32:21;10.95;79.02
70051;SHT30;57391;51.306;22.680;2022-10-16T03:34:48;10.94;79.05
70051;SHT30;57391;51.306;22.680;2022-10-16T03:37:15;10.94;79.10
70051;SHT30;57391;51.306;22.680;2022-10-16T03:39:42;10.94;79.16
70051;SHT30;57391;51.306;22.680;2022-10-16T03:42:09;10.93;79.18
70051;SHT30;57391;51.306;22.680;2022-10-16T03:44:36;10.91;79.20
70051;SHT30;57391;51.306;22.680;2022-10-16T03:47:03;10.92;79.31
70051;SHT30;57391;51.306;22.680;2022-10-16T03:49:30;10.91;79.31
70051;SHT30;57391;51.306;22.680;2022-10-16T03:51:57;10.92;79.36
70051;SHT30;57391;51.306;22.680;2022-10-16T03:54:24;10.92;79.50
70051;SHT30;57391;51.306;22.680;2022-10-16T03:56:51;10.92;79.57
70051;SHT30;57391;51.306;22.680;2022-10-16T03:59:18;10.95;79.61
70051;SHT30;57391;51.306;22.680;2022-10-16T04:01:45;10.95;79.62
70051;SHT30;57391;51.306;22.680;2022-10-16T04:04:12;10.96;79.66
70051;SHT30;57391;51.306;22.680;2022-10-16T04:06:39;10.97;79.68
70051;SHT30;57391;51.306;22.680;2022-10-16T04:09:06;10.98;79.68
70051;SHT30;57391;51.306;22.680;2022-10-16T04:11:33;11.01;79.66
70051;SHT30;57391;51.306;22.680;2022-10-16T04:14:00;11.01;79.63
70051;SHT30;57391;51.306;22.680;2022-10-16T04:16:27;11.02;79.70
70051;SHT30;57391;51.306;22.680;2022-10-16T04:18:55;11.05;79.76
70051;SHT30;57391;51.306;22.680;2022-10-16T04:21:22;11.06;79.77
70051;SHT30;57391;51.306;22.680;2022-10-16T04:23:49;11.08;79.80
70051;SHT30;57391;51.306;22.680;2022-10-16T04:26:16;11.10;79.81
70051;SHT30;57391;51.306;22.680;2022-10-16T04:28:43;11.13;79.82
70051;SHT30;57391;51.306;22.680;2022-10-16T04:31:10;11.16;79.90
70051;SHT30;57391;51.306;22.680;2022-10-16T04:33:37;11.18;79.89
70051;SHT30;57391;51.306;22.680;2022-10-16T04:36:04;11.21;79.89
70051;SHT30;57391;51.306;22.680;2022-10-16T04:38:32;11.24;79.83
70051;SHT30;57391;51.306;22.680;2022-10-16T04:40:59;11.26;79.79
70051;SHT30;57391;51.306;22.680;2022-10-16T04:43:26;11.28;79.74
70051;SHT30;57391;51.306;22.680;2022-10-16T04:45:53;11.30;79.72
70051;SHT30;57391;51.306;22.680;2022-10-16T04:48:21;11.32;79.71
70051;SHT30;57391;51.306;22.680;2022-10-16T04:50:48;11.33;79.64
70051;SHT30;57391;51.306;22.680;2022-10-16T04:53:16;11.35;79.66
70051;SHT30;57391;51.306;22.680;2022-10-16T04:55:43;11.36;79.68
70051;SHT30;57391;51.306;22.680;2022-10-16T04:58:10;11.38;79.71
70051;SHT30;57391;51.306;22.680;2022-10-16T05:00:37;11.41;79.72
70051;SHT30;57391;51.306;22.680;2022-10-16T05:03:04;11.44;79.76
70051;SHT30;57391;51.306;22.680;2022-10-16T05:05:35;11.49;79.78
70051;SHT30;57391;51.306;22.680;2022-10-16T05:08:03;11.53;79.73
70051;SHT30;57391;51.306;22.680;2022-10-16T05:10:30;11.61;79.70
70051;SHT30;57391;51.306;22.680;2022-10-16T05:12:57;11.72;79.59
70051;SHT30;57391;51.306;22.680;2022-10-16T05:15:25;11.82;79.36
70051;SHT30;57391;51.306;22.680;2022-10-16T05:17:52;11.92;79.20
70051;SHT30;57391;51.306;22.680;2022-10-16T05:20:21;12.02;78.97
70051;SHT30;57391;51.306;22.680;2022-10-16T05:22:49;12.21;78.59
70051;SHT30;57391;51.306;22.680;2022-10-16T05:25:16;12.47;78.26
70051;SHT30;57391;51.306;22.680;2022-10-16T05:27:46;12.75;77.73
70051;SHT30;57391;51.306;22.680;2022-10-16T05:30:15;12.97;76.89
70051;SHT30;57391;51.306;22.680;2022-10-16T05:32:47;13.02;76.44
70051;SHT30;57391;51.306;22.680;2022-10-16T05:35:16;13.01;76.28
70051;SHT30;57391;51.306;22.680;2022-10-16T05:37:45;13.17;76.07
70051;SHT30;57391;51.306;22.680;2022-10-16T05:40:12;13.26;75.73
70051;SHT30;57391;51.306;22.680;2022-10-16T05:42:40;13.28;75.43
70051;SHT30;57391;51.306;22.680;2022-10-16T05:45:09;13.23;75.36
70051;SHT30;57391;51.306;22.680;2022-10-16T05:47:38;13.18;75.42
70051;SHT30;57391;51.306;22.680;2022-10-16T05:50:06;13.14;75.52
70051;SHT30;57391;51.306;22.680;2022-10-16T05:52:34;13.09;75.57
70051;SHT30;57391;51.306;22.680;2022-10-16T05:55:01;13.05;75.60
70051;SHT30;57391;51.306;22.680;2022-10-16T05:57:29;13.02;75.75
70051;SHT30;57391;51.306;22.680;2022-10-16T05:59:56;12.99;75.79
70051;SHT30;57391;51.306;22.680;2022-10-16T06:02:23;12.97;75.89
70051;SHT30;57391;51.306;22.680;2022-10-16T06:04:51;12.95;75.90
70051;SHT30;57391;51.306;22.680;2022-10-16T06:07:22;12.94;75.92
70051;SHT30;57391;51.306;22.680;2022-10-16T06:09:50;12.91;75.96
70051;SHT30;57391;51.306;22.680;2022-10-16T06:12:19;12.90;76.11
70051;SHT30;57391;51.306;22.680;2022-10-16T06:14:46;12.90;76.13
70051;SHT30;57391;51.306;22.680;2022-10-16T06:17:15;12.89;76.10
70051;SHT30;57391;51.306;22.680;2022-10-16T06:19:42;12.88;76.13
70051;SHT30;57391;51.306;22.680;2022-10-16T06:22:09;12.88;76.20
70051;SHT30;57391;51.306;22.680;2022-10-16T06:24:37;12.88;76.20
70051;SHT30;57391;51.306;22.680;2022-10-16T06:27:05;12.89;76.21
70051;SHT30;57391;51.306;22.680;2022-10-16T06:29:32;12.87;76.23
70051;SHT30;57391;51.306;22.680;2022-10-16T06:31:59;12.86;76.29
70051;SHT30;57391;51.306;22.680;2022-10-16T06:34:26;12.86;76.36
70051;SHT30;57391;51.306;22.680;2022-10-16T06:36:53;12.86;76.46
70051;SHT30;57391;51.306;22.680;2022-10-16T06:39:20;12.87;76.42
70051;SHT30;57391;51.306;22.680;2022-10-16T06:41:47;12.87;76.44
70051;SHT30;57391;51.306;22.680;2022-10-16T06:44:15;12.87;76.54
70051;SHT30;57391;51.306;22.680;2022-10-16T06:46:42;12.88;76.60
70051;SHT30;57391;51.306;22.680;2022-10-16T06:49:09;12.89;76.55
70051;SHT30;57391;51.306;22.680;2022-10-16T06:51:36;12.89;76.62
70051;SHT30;57391;51.306;22.680;2022-10-16T06:54:07;12.91;76.81
70051;SHT30;57391;51.306;22.680;2022-10-16T06:56:35;12.95;76.76
70051;SHT30;57391;51.306;22.680;2022-10-16T06:59:03;12.98;76.66
70051;SHT30;57391;51.306;22.680;2022-10-16T07:01:31;13.04;76.60
70051;SHT30;57391;51.306;22.680;2022-10-16T07:03:59;13.09;76.62
70051;SHT30;57391;51.306;22.680;2022-10-16T07:06:30;13.14;76.48
70051;SHT30;57391;51.306;22.680;2022-10-16T07:09:00;13.20;76.37
70051;SHT30;57391;51.306;22.680;2022-10-16T07:11:33;13.25;76.22
70051;SHT30;57391;51.306;22.680;2022-10-16T07:14:02;13.32;76.17
70051;SHT30;57391;51.306;22.680;2022-10-16T07:16:31;13.39;76.02
70051;SHT30;57391;51.306;22.680;2022-10-16T07:19:00;13.48;75.88
70051;SHT30;57391;51.306;22.680;2022-10-16T07:21:30;13.58;75.60
70051;SHT30;57391;51.306;22.680;2022-10-16T07:24:04;13.67;75.15
70051;SHT30;57391;51.306;22.680;2022-10-16T07:26:34;13.76;74.97
70051;SHT30;57391;51.306;22.680;2022-10-16T07:29:07;13.86;74.95
70051;SHT30;57391;51.306;22.680;2022-10-16T07:31:40;13.95;74.66
70051;SHT30;57391;51.306;22.680;2022-10-16T07:34:09;14.03;74.50
70051;SHT30;57391;51.306;22.680;2022-10-16T07:36:38;14.13;74.60
70051;SHT30;57391;51.306;22.680;2022-10-16T07:39:05;14.25;74.15
70051;SHT30;57391;51.306;22.680;2022-10-16T07:41:33;14.42;73.81
70051;SHT30;57391;51.306;22.680;2022-10-16T07:44:03;14.74;73.37
70051;SHT30;57391;51.306;22.680;2022-10-16T07:46:31;15.07;72.69
70051;SHT30;57391;51.306;22.680;2022-10-16T07:49:00;15.38;72.33
70051;SHT30;57391;51.306;22.680;2022-10-16T07:51:27;15.54;71.59
70051;SHT30;57391;51.306;22.680;2022-10-16T07:53:54;15.58;70.41
70051;SHT30;57391;51.306;22.680;2022-10-16T07:56:21;15.57;70.18
70051;SHT30;57391;51.306;22.680;2022-10-16T07:58:50;15.57;69.97
70051;SHT30;57391;51.306;22.680;2022-10-16T08:01:18;15.59;69.82
70051;SHT30;57391;51.306;22.680;2022-10-16T08:03:47;15.71;69.90
70051;SHT30;57391;51.306;22.680;2022-10-16T08:06:19;15.96;69.37
70051;SHT30;57391;51.306;22.680;2022-10-16T08:08:48;16.38;68.71
70051;SHT30;57391;51.306;22.680;2022-10-16T08:11:21;16.91;67.65
70051;SHT30;57391;51.306;22.680;2022-10-16T08:13:49;17.33;66.49
70051;SHT30;57391;51.306;22.680;2022-10-16T08:16:17;17.69;65.26
70051;SHT30;57391;51.306;22.680;2022-10-16T08:18:45;17.98;64.52
70051;SHT30;57391;51.306;22.680;2022-10-16T08:21:14;18.25;63.75
70051;SHT30;57391;51.306;22.680;2022-10-16T08:23:45;18.53;62.67
70051;SHT30;57391;51.306;22.680;2022-10-16T08:26:12;18.77;61.70
70051;SHT30;57391;51.306;22.680;2022-10-16T08:28:40;19.02;61.19
70051;SHT30;57391;51.306;22.680;2022-10-16T08:31:10;19.27;60.72
70051;SHT30;57391;51.306;22.680;2022-10-16T08:33:42;19.55;59.96
70051;SHT30;57391;51.306;22.680;2022-10-16T08:36:13;19.71;58.92
70051;SHT30;57391;51.306;22.680;2022-10-16T08:38:42;19.92;58.84
70051;SHT30;57391;51.306;22.680;2022-10-16T08:50:18;20.84;55.56
70051;SHT30;57391;51.306;22.680;2022-10-16T08:52:54;21.02;55.31
70051;SHT30;57391;51.306;22.680;2022-10-16T08:57:56;21.25;54.35
70051;SHT30;57391;51.306;22.680;2022-10-16T09:00:23;21.37;54.11
70051;SHT30;57391;51.306;22.680;2022-10-16T09:03:10;21.48;53.78
70051;SHT30;57391;51.306;22.680;2022-10-16T09:05:49;21.59;53.33
70051;SHT30;57391;51.306;22.680;2022-10-16T09:14:11;21.74;52.20
70051;SHT30;57391;51.306;22.680;2022-10-16T09:16:44;21.75;51.89
70051;SHT30;57391;51.306;22.680;2022-10-16T09:19:30;21.76;51.90
70051;SHT30;57391;51.306;22.680;2022-10-16T09:22:12;21.71;51.43
70051;SHT30;57391;51.306;22.680;2022-10-16T09:24:42;21.63;51.53
70051;SHT30;57391;51.306;22.680;2022-10-16T09:27:10;21.61;51.80
70051;SHT30;57391;51.306;22.680;2022-10-16T09:29:40;21.62;52.21
70051;SHT30;57391;51.306;22.680;2022-10-16T09:32:14;21.61;52.02
70051;SHT30;57391;51.306;22.680;2022-10-16T09:34:52;21.46;51.73
70051;SHT30;57391;51.306;22.680;2022-10-16T09:37:23;21.27;52.33
70051;SHT30;57391;51.306;22.680;2022-10-16T09:39:53;21.12;52.20
70051;SHT30;57391;51.306;22.680;2022-10-16T09:44:54;20.94;53.02
70051;SHT30;57391;51.306;22.680;2022-10-16T09:47:28;20.85;53.33
70051;SHT30;57391;51.306;22.680;2022-10-16T09:50:02;20.78;53.25
70051;SHT30;57391;51.306;22.680;2022-10-16T09:52:46;20.73;53.52
70051;SHT30;57391;51.306;22.680;2022-10-16T09:55:15;20.67;53.60
70051;SHT30;57391;51.306;22.680;2022-10-16T09:57:52;20.56;53.53
70051;SHT30;57391;51.306;22.680;2022-10-16T10:00:24;20.48;53.95
70051;SHT30;57391;51.306;22.680;2022-10-16T10:02:52;20.44;53.82
70051;SHT30;57391;51.306;22.680;2022-10-16T10:05:25;20.35;53.99
70051;SHT30;57391;51.306;22.680;2022-10-16T10:07:59;20.30;54.49
70051;SHT30;57391;51.306;22.680;2022-10-16T10:10:42;20.24;54.48
70051;SHT30;57391;51.306;22.680;2022-10-16T10:13:22;20.17;55.18
70051;SHT30;57391;51.306;22.680;2022-10-16T10:15:54;20.15;55.61
70051;SHT30;57391;51.306;22.680;2022-10-16T10:18:22;20.12;54.97
70051;SHT30;57391;51.306;22.680;2022-10-16T10:21:00;20.05;54.96
70051;SHT30;57391;51.306;22.680;2022-10-16T10:23:31;20.02;55.42
70051;SHT30;57391;51.306;22.680;2022-10-16T10:31:45;19.98;55.83
70051;SHT30;57391;51.306;22.680;2022-10-16T10:35:07;20.00;56.08
70051;SHT30;57391;51.306;22.680;2022-10-16T10:37:51;20.05;55.85
70051;SHT30;57391;51.306;22.680;2022-10-16T10:45:52;19.98;56.12
70051;SHT30;57391;51.306;22.680;2022-10-16T10:55:17;19.92;56.35
70051;SHT30;57391;51.306;22.680;2022-10-16T10:57:59;19.90;56.26
70051;SHT30;57391;51.306;22.680;2022-10-16T11:01:12;19.94;56.47
70051;SHT30;57391;51.306;22.680;2022-10-16T11:06:32;20.12;56.31
70051;SHT30;57391;51.306;22.680;2022-10-16T11:09:18;20.17;55.74
70051;SHT30;57391;51.306;22.680;2022-10-16T11:12:21;20.19;55.88
70051;SHT30;57391;51.306;22.680;2022-10-16T11:17:50;20.16;55.50
70051;SHT30;57391;51.306;22.680;2022-10-16T11:20:49;20.09;55.25
70051;SHT30;57391;51.306;22.680;2022-10-16T11:26:05;19.97;55.38
70051;SHT30;57391;51.306;22.680;2022-10-16T11:28:50;19.90;55.54
70051;SHT30;57391;51.306;22.680;2022-10-16T11:34:07;19.85;56.21
70051;SHT30;57391;51.306;22.680;2022-10-16T11:39:19;19.74;56.10
70051;SHT30;57391;51.306;22.680;2022-10-16T11:42:40;19.67;56.17
70051;SHT30;57391;51.306;22.680;2022-10-16T11:47:50;19.55;56.47
70051;SHT30;57391;51.306;22.680;2022-10-16T11:50:41;19.49;56.82
70051;SHT30;57391;51.306;22.680;2022-10-16T11:55:59;19.42;57.17
70051;SHT30;57391;51.306;22.680;2022-10-16T11:58:31;19.41;57.50
70051;SHT30;57391;51.306;22.680;2022-10-16T12:03:43;19.36;57.34
70051;SHT30;57391;51.306;22.680;2022-10-16T12:09:11;19.34;57.83
70051;SHT30;57391;51.306;22.680;2022-10-16T12:11:56;19.34;57.49
70051;SHT30;57391;51.306;22.680;2022-10-16T12:16:55;19.36;57.72
70051;SHT30;57391;51.306;22.680;2022-10-16T12:19:29;19.37;57.77
70051;SHT30;57391;51.306;22.680;2022-10-16T12:22:00;19.38;57.82
70051;SHT30;57391;51.306;22.680;2022-10-16T12:24:37;19.40;57.67
70051;SHT30;57391;51.306;22.680;2022-10-16T12:27:29;19.40;57.56
70051;SHT30;57391;51.306;22.680;2022-10-16T12:30:02;19.38;57.86
70051;SHT30;57391;51.306;22.680;2022-10-16T12:32:35;19.37;58.16
70051;SHT30;57391;51.306;22.680;2022-10-16T12:35:16;19.35;58.32
70051;SHT30;57391;51.306;22.680;2022-10-16T12:37:50;19.30;58.46
70051;SHT30;57391;51.306;22.680;2022-10-16T12:40:29;19.27;58.50
70051;SHT30;57391;51.306;22.680;2022-10-16T12:43:11;19.27;58.74
70051;SHT30;57391;51.306;22.680;2022-10-16T12:46:00;19.36;58.89
70051;SHT30;57391;51.306;22.680;2022-10-16T12:48:50;19.50;58.98
70051;SHT30;57391;51.306;22.680;2022-10-16T12:54:12;19.68;58.19
70051;SHT30;57391;51.306;22.680;2022-10-16T12:59:57;19.83;57.82
70051;SHT30;57391;51.306;22.680;2022-10-16T13:03:02;19.96;57.84
70051;SHT30;57391;51.306;22.680;2022-10-16T13:18:09;19.92;58.04
70051;SHT30;57391;51.306;22.680;2022-10-16T13:21:03;19.93;58.25
70051;SHT30;57391;51.306;22.680;2022-10-16T13:26:49;19.93;58.63
70051;SHT30;57391;51.306;22.680;2022-10-16T13:29:31;19.93;58.39
70051;SHT30;57391;51.306;22.680;2022-10-16T13:32:00;19.91;58.28
70051;SHT30;57391;51.306;22.680;2022-10-16T13:34:43;19.87;58.38
70051;SHT30;57391;51.306;22.680;2022-10-16T13:37:19;19.82;58.42
70051;SHT30;57391;51.306;22.680;2022-10-16T13:39:49;19.77;58.73
70051;SHT30;57391;51.306;22.680;2022-10-16T13:42:23;19.74;58.88
70051;SHT30;57391;51.306;22.680;2022-10-16T13:44:54;19.73;59.10
70051;SHT30;57391;51.306;22.680;2022-10-16T13:47:24;19.70;59.36
70051;SHT30;57391;51.306;22.680;2022-10-16T13:50:02;19.67;59.30
70051;SHT30;57391;51.306;22.680;2022-10-16T13:52:33;19.64;59.23
70051;SHT30;57391;51.306;22.680;2022-10-16T13:55:00;19.61;59.23
70051;SHT30;57391;51.306;22.680;2022-10-16T13:57:29;19.58;59.22
70051;SHT30;57391;51.306;22.680;2022-10-16T13:59:56;19.57;59.36
70051;SHT30;57391;51.306;22.680;2022-10-16T14:02:41;19.58;59.34
70051;SHT30;57391;51.306;22.680;2022-10-16T14:05:09;19.55;59.30
70051;SHT30;57391;51.306;22.680;2022-10-16T14:07:37;19.56;59.29
70051;SHT30;57391;51.306;22.680;2022-10-16T14:10:06;19.55;59.33
70051;SHT30;57391;51.306;22.680;2022-10-16T14:12:55;19.55;59.32
70051;SHT30;57391;51.306;22.680;2022-10-16T14:15:26;19.54;59.53
70051;SHT30;57391;51.306;22.680;2022-10-16T14:17:56;19.53;59.52
70051;SHT30;57391;51.306;22.680;2022-10-16T14:20:27;19.52;59.70
70051;SHT30;57391;51.306;22.680;2022-10-16T14:23:00;19.51;59.74
70051;SHT30;57391;51.306;22.680;2022-10-16T14:25:45;19.49;59.86
70051;SHT30;57391;51.306;22.680;2022-10-16T14:28:18;19.47;60.03
70051;SHT30;57391;51.306;22.680;2022-10-16T14:30:55;19.43;60.24
70051;SHT30;57391;51.306;22.680;2022-10-16T14:36:18;19.34;60.61
70051;SHT30;57391;51.306;22.680;2022-10-16T14:39:04;19.30;60.79
70051;SHT30;57391;51.306;22.680;2022-10-16T14:41:45;19.25;61.01
70051;SHT30;57391;51.306;22.680;2022-10-16T14:44:19;19.20;61.15
70051;SHT30;57391;51.306;22.680;2022-10-16T14:46:55;19.16;61.35
70051;SHT30;57391;51.306;22.680;2022-10-16T14:49:25;19.11;61.53
70051;SHT30;57391;51.306;22.680;2022-10-16T14:51:56;19.05;61.68
70051;SHT30;57391;51.306;22.680;2022-10-16T14:54:24;19.01;61.89
70051;SHT30;57391;51.306;22.680;2022-10-16T14:56:53;18.95;61.97
70051;SHT30;57391;51.306;22.680;2022-10-16T14:59:25;18.90;62.13
70051;SHT30;57391;51.306;22.680;2022-10-16T15:05:11;18.80;62.59
70051;SHT30;57391;51.306;22.680;2022-10-16T15:07:48;18.75;62.75
70051;SHT30;57391;51.306;22.680;2022-10-16T15:10:19;18.72;62.92
70051;SHT30;57391;51.306;22.680;2022-10-16T15:12:49;18.68;63.04
70051;SHT30;57391;51.306;22.680;2022-10-16T15:18:18;18.61;63.28
70051;SHT30;57391;51.306;22.680;2022-10-16T15:20:48;18.58;63.40
70051;SHT30;57391;51.306;22.680;2022-10-16T15:23:19;18.56;63.58
70051;SHT30;57391;51.306;22.680;2022-10-16T15:25:52;18.51;63.85
70051;SHT30;57391;51.306;22.680;2022-10-16T15:28:22;18.44;64.16
70051;SHT30;57391;51.306;22.680;2022-10-16T15:30:53;18.37;64.45
70051;SHT30;57391;51.306;22.680;2022-10-16T15:33:24;18.31;64.60
70051;SHT30;57391;51.306;22.680;2022-10-16T15:35:55;18.26;64.76
70051;SHT30;57391;51.306;22.680;2022-10-16T15:38:22;18.21;65.06
70051;SHT30;57391;51.306;22.680;2022-10-16T15:40:49;18.16;65.28
70051;SHT30;57391;51.306;22.680;2022-10-16T15:43:17;18.10;65.55
70051;SHT30;57391;51.306;22.680;2022-10-16T15:46:08;18.05;65.70
70051;SHT30;57391;51.306;22.680;2022-10-16T15:48:37;17.99;65.84
70051;SHT30;57391;51.306;22.680;2022-10-16T15:51:05;17.95;65.95
70051;SHT30;57391;51.306;22.680;2022-10-16T15:53:34;17.91;66.04
70051;SHT30;57391;51.306;22.680;2022-10-16T15:56:05;17.87;66.15
70051;SHT30;57391;51.306;22.680;2022-10-16T15:58:35;17.84;66.21
70051;SHT30;57391;51.306;22.680;2022-10-16T16:01:02;17.81;66.21
70051;SHT30;57391;51.306;22.680;2022-10-16T16:03:32;17.79;66.28
70051;SHT30;57391;51.306;22.680;2022-10-16T16:06:11;17.76;66.30
70051;SHT30;57391;51.306;22.680;2022-10-16T16:08:41;17.74;66.30
70051;SHT30;57391;51.306;22.680;2022-10-16T16:11:10;17.72;66.33
70051;SHT30;57391;51.306;22.680;2022-10-16T16:13:40;17.68;66.37
70051;SHT30;57391;51.306;22.680;2022-10-16T16:16:09;17.66;66.41
70051;SHT30;57391;51.306;22.680;2022-10-16T16:18:40;17.63;66.45
70051;SHT30;57391;51.306;22.680;2022-10-16T16:21:12;17.61;66.49
70051;SHT30;57391;51.306;22.680;2022-10-16T16:23:39;17.60;66.54
70051;SHT30;57391;51.306;22.680;2022-10-16T16:26:14;17.56;66.57
70051;SHT30;57391;51.306;22.680;2022-10-16T16:28:54;17.53;66.62
70051;SHT30;57391;51.306;22.680;2022-10-16T16:31:24;17.50;66.62
70051;SHT30;57391;51.306;22.680;2022-10-16T16:33:53;17.47;66.59
70051;SHT30;57391;51.306;22.680;2022-10-16T16:36:24;17.45;66.49
70051;SHT30;57391;51.306;22.680;2022-10-16T16:38:52;17.41;66.40
70051;SHT30;57391;51.306;22.680;2022-10-16T16:41:21;17.37;66.40
70051;SHT30;57391;51.306;22.680;2022-10-16T16:43:53;17.35;66.33
70051;SHT30;57391;51.306;22.680;2022-10-16T16:46:22;17.32;66.24
70051;SHT30;57391;51.306;22.680;2022-10-16T16:48:49;17.29;66.19
70051;SHT30;57391;51.306;22.680;2022-10-16T16:51:22;17.27;66.16
70051;SHT30;57391;51.306;22.680;2022-10-16T16:53:52;17.24;66.15
70051;SHT30;57391;51.306;22.680;2022-10-16T16:56:24;17.23;66.16
70051;SHT30;57391;51.306;22.680;2022-10-16T16:58:54;17.22;66.10
70051;SHT30;57391;51.306;22.680;2022-10-16T17:01:24;17.22;66.11
70051;SHT30;57391;51.306;22.680;2022-10-16T17:03:55;17.20;66.17
70051;SHT30;57391;51.306;22.680;2022-10-16T17:06:25;17.18;66.21
70051;SHT30;57391;51.306;22.680;2022-10-16T17:08:56;17.16;66.26
70051;SHT30;57391;51.306;22.680;2022-10-16T17:11:26;17.14;66.24
70051;SHT30;57391;51.306;22.680;2022-10-16T17:13:54;17.09;66.27
70051;SHT30;57391;51.306;22.680;2022-10-16T17:16:26;17.08;66.21
70051;SHT30;57391;51.306;22.680;2022-10-16T17:19:00;17.06;66.19
70051;SHT30;57391;51.306;22.680;2022-10-16T17:21:34;17.03;66.24
70051;SHT30;57391;51.306;22.680;2022-10-16T17:24:02;17.01;66.30
70051;SHT30;57391;51.306;22.680;2022-10-16T17:26:31;16.99;66.21
70051;SHT30;57391;51.306;22.680;2022-10-16T17:29:01;16.95;66.22